Time;durP1;ratioP1;P1;durP2;ratioP2;P2;SDS_P1;SDS_P2;PMS_P1;PMS_P2;Temp;Humidity;BMP_temperature;BMP_pressure;BME280_temperature;BME280_humidity;BME280_pressure;Samples;Min_cycle;Max_cycle;Signal;HPM_P1;HPM_P2
2020/05/13 00:01:47;;;;;;;1.38;1.28;;;;;;;18.46;41.99;100220.91;;;;-51
2020/05/13 00:08:49;;;;;;;2.17;1.51;;;;;;;18.44;42.02;100209.34;;;;-51
2020/05/13 00:11:43;;;;;;;1.67;1.53;;;;;;;18.44;42.00;100206.00;;;;-51
2020/05/13 00:15:45;;;;;;;1.39;1.29;;;;;;;18.43;42.00;100202.72;;;;-51
2020/05/13 00:18:44;;;;;;;1.59;1.41;;;;;;;18.43;42.05;100210.97;;;;-51
2020/05/13 00:21:44;;;;;;;1.41;1.29;;;;;;;18.42;42.05;100209.02;;;;-51
2020/05/13 00:24:44;;;;;;;1.49;1.39;;;;;;;18.42;42.03;100209.59;;;;-50
2020/05/13 00:27:46;;;;;;;1.50;1.40;;;;;;;18.42;42.04;100208.25;;;;-51
2020/05/13 00:31:03;;;;;;;1.47;1.37;;;;;;;18.42;42.07;100204.00;;;;-51
2020/05/13 00:34:04;;;;;;;1.46;1.36;;;;;;;18.41;42.03;100201.84;;;;-51
2020/05/13 00:36:49;;;;;;;1.77;1.39;;;;;;;18.41;42.06;100203.02;;;;-51
2020/05/13 00:39:44;;;;;;;1.70;1.40;;;;;;;18.40;42.03;100196.22;;;;-51
2020/05/13 00:42:55;;;;;;;1.39;1.29;;;;;;;18.39;42.02;100190.59;;;;-51
2020/05/13 00:45:51;;;;;;;1.60;1.50;;;;;;;18.40;42.00;100191.70;;;;-51
2020/05/13 00:48:43;;;;;;;1.51;1.40;;;;;;;18.39;42.03;100193.84;;;;-51
2020/05/13 00:51:44;;;;;;;1.40;1.30;;;;;;;18.38;42.04;100185.77;;;;-51
2020/05/13 00:54:44;;;;;;;1.47;1.37;;;;;;;18.38;42.02;100185.27;;;;-57
2020/05/13 00:57:44;;;;;;;1.70;1.47;;;;;;;18.38;42.01;100189.28;;;;-57
2020/05/13 01:00:44;;;;;;;1.49;1.39;;;;;;;18.38;42.04;100181.82;;;;-58
2020/05/13 01:04:44;;;;;;;1.40;1.30;;;;;;;18.37;42.06;100174.52;;;;-58
2020/05/13 01:07:43;;;;;;;1.57;1.47;;;;;;;18.37;42.05;100178.70;;;;-58
2020/05/13 01:10:44;;;;;;;1.42;1.32;;;;;;;18.37;42.01;100180.04;;;;-59
2020/05/13 01:13:44;;;;;;;1.48;1.38;;;;;;;18.36;41.99;100185.52;;;;-58
2020/05/13 01:16:44;;;;;;;1.49;1.39;;;;;;;18.36;42.05;100184.78;;;;-58
2020/05/13 01:19:44;;;;;;;1.67;1.41;;;;;;;18.35;42.04;100185.31;;;;-58
2020/05/13 01:22:44;;;;;;;1.51;1.41;;;;;;;18.36;42.04;100185.84;;;;-58
2020/05/13 01:26:43;;;;;;;1.41;1.31;;;;;;;18.36;42.02;100183.23;;;;-58
2020/05/13 01:29:44;;;;;;;1.43;1.33;;;;;;;18.35;42.03;100187.41;;;;-58
2020/05/13 01:32:44;;;;;;;1.73;1.43;;;;;;;18.34;42.03;100184.93;;;;-58
2020/05/13 01:35:44;;;;;;;1.55;1.45;;;;;;;18.35;42.02;100185.73;;;;-58
2020/05/13 01:38:44;;;;;;;1.41;1.31;;;;;;;18.34;42.05;100183.59;;;;-58
2020/05/13 01:41:53;;;;;;;1.50;1.40;;;;;;;18.34;42.06;100183.09;;;;-58
2020/05/13 01:45:25;;;;;;;1.47;1.37;;;;;;;18.34;42.04;100177.00;;;;-58
2020/05/13 01:48:51;;;;;;;1.49;1.39;;;;;;;18.33;42.04;100184.81;;;;-57
2020/05/13 01:54:53;;;;;;;1.50;1.40;;;;;;;18.33;42.06;100179.59;;;;-58
2020/05/13 01:57:52;;;;;;;1.66;1.56;;;;;;;18.32;42.03;100178.98;;;;-57
2020/05/13 02:01:06;;;;;;;1.80;1.59;;;;;;;18.31;42.09;100168.95;;;;-57
2020/05/13 02:03:44;;;;;;;1.51;1.41;;;;;;;18.32;42.07;100175.37;;;;-58
2020/05/13 02:06:45;;;;;;;1.39;1.29;;;;;;;18.31;42.05;100179.44;;;;-58
2020/05/13 02:09:58;;;;;;;1.40;1.30;;;;;;;18.31;42.11;100179.10;;;;-57
2020/05/13 02:12:44;;;;;;;1.59;1.49;;;;;;;18.30;42.07;100176.42;;;;-58
2020/05/13 02:15:47;;;;;;;1.60;1.50;;;;;;;18.31;42.09;100179.00;;;;-58
2020/05/13 02:18:45;;;;;;;1.50;1.40;;;;;;;18.29;42.13;100177.55;;;;-59
2020/05/13 02:21:45;;;;;;;1.55;1.45;;;;;;;18.29;42.08;100179.62;;;;-59
2020/05/13 02:24:44;;;;;;;1.71;1.30;;;;;;;18.29;42.09;100188.21;;;;-58
2020/05/13 02:27:44;;;;;;;1.50;1.40;;;;;;;18.29;42.10;100183.53;;;;-58
2020/05/13 02:30:44;;;;;;;1.40;1.30;;;;;;;18.29;42.10;100186.31;;;;-59
2020/05/13 02:33:44;;;;;;;1.50;1.36;;;;;;;18.28;42.10;100178.70;;;;-57
2020/05/13 02:36:57;;;;;;;1.58;1.48;;;;;;;18.28;42.10;100177.70;;;;-57
2020/05/13 02:39:44;;;;;;;1.43;1.33;;;;;;;18.27;42.09;100176.02;;;;-58
2020/05/13 02:42:44;;;;;;;1.62;1.43;;;;;;;18.27;42.10;100183.04;;;;-58
2020/05/13 02:45:44;;;;;;;1.47;1.37;;;;;;;18.27;42.11;100183.61;;;;-58
2020/05/13 02:48:51;;;;;;;1.50;1.40;;;;;;;18.25;42.13;100178.88;;;;-58
2020/05/13 02:51:48;;;;;;;1.54;1.44;;;;;;;18.27;42.10;100186.11;;;;-58
2020/05/13 02:54:44;;;;;;;1.51;1.41;;;;;;;18.26;42.09;100185.67;;;;-58
2020/05/13 02:57:44;;;;;;;1.44;1.34;;;;;;;18.25;42.13;100187.23;;;;-58
2020/05/13 03:00:44;;;;;;;2.03;1.36;;;;;;;18.26;42.08;100185.47;;;;-58
2020/05/13 03:03:44;;;;;;;2.35;1.41;;;;;;;18.26;42.10;100188.47;;;;-58
2020/05/13 03:06:44;;;;;;;1.39;1.29;;;;;;;18.24;42.11;100187.02;;;;-58
2020/05/13 03:09:47;;;;;;;1.51;1.41;;;;;;;18.25;42.10;100190.03;;;;-58
2020/05/13 03:12:48;;;;;;;1.59;1.48;;;;;;;18.24;42.08;100187.19;;;;-58
2020/05/13 03:15:45;;;;;;;1.64;1.54;;;;;;;18.24;42.04;100182.03;;;;-57
2020/05/13 03:18:44;;;;;;;1.50;1.40;;;;;;;18.23;42.08;100172.02;;;;-57
2020/05/13 03:21:44;;;;;;;1.59;1.49;;;;;;;18.22;42.06;100176.27;;;;-58
2020/05/13 03:24:50;;;;;;;1.42;1.32;;;;;;;18.22;42.10;100179.94;;;;-58
2020/05/13 03:30:47;;;;;;;1.57;1.47;;;;;;;18.21;42.12;100179.23;;;;-58
2020/05/13 03:34:06;;;;;;;1.41;1.31;;;;;;;18.21;42.11;100184.34;;;;-58
2020/05/13 03:36:45;;;;;;;1.50;1.40;;;;;;;18.21;42.07;100191.53;;;;-58
2020/05/13 03:39:44;;;;;;;1.50;1.40;;;;;;;18.23;42.08;100205.38;;;;-58
2020/05/13 03:42:44;;;;;;;1.50;1.40;;;;;;;18.23;42.06;100203.37;;;;-58
2020/05/13 03:45:43;;;;;;;1.61;1.51;;;;;;;18.25;42.01;100204.97;;;;-57
2020/05/13 03:48:44;;;;;;;1.49;1.39;;;;;;;18.26;41.95;100208.34;;;;-57
2020/05/13 03:52:05;;;;;;;1.50;1.40;;;;;;;18.28;41.91;100206.42;;;;-58
2020/05/13 03:55:05;;;;;;;1.50;1.40;;;;;;;18.30;41.88;100199.02;;;;-58
2020/05/13 03:57:51;;;;;;;1.40;1.30;;;;;;;18.33;41.82;100195.58;;;;-58
2020/05/13 04:03:57;;;;;;;1.52;1.42;;;;;;;18.39;41.92;100206.44;;;;-58
2020/05/13 04:07:45;;;;;;;1.59;1.49;;;;;;;18.45;41.85;100209.05;;;;-58
2020/05/13 04:10:49;;;;;;;2.83;1.43;;;;;;;18.49;41.95;100221.17;;;;-57
2020/05/13 04:21:44;;;;;;;1.56;1.44;;;;;;;18.62;42.05;100218.00;;;;-57
2020/05/13 04:25:44;;;;;;;1.84;1.50;;;;;;;18.67;42.22;100233.17;;;;-58
2020/05/13 04:28:44;;;;;;;2.23;1.40;;;;;;;18.70;42.27;100227.95;;;;-57
2020/05/13 04:31:44;;;;;;;1.72;1.40;;;;;;;18.73;42.26;100220.16;;;;-57
2020/05/13 04:34:44;;;;;;;2.53;1.40;;;;;;;18.77;42.25;100219.80;;;;-48
2020/05/13 04:37:44;;;;;;;1.48;1.38;;;;;;;18.81;42.32;100225.33;;;;-48
2020/05/13 04:44:59;;;;;;;1.40;1.30;;;;;;;18.88;42.30;100210.17;;;;-48
2020/05/13 04:47:50;;;;;;;1.62;1.40;;;;;;;18.92;42.31;100211.67;;;;-48
2020/05/13 04:50:44;;;;;;;1.46;1.36;;;;;;;18.95;42.33;100208.42;;;;-48
2020/05/13 04:53:44;;;;;;;1.52;1.42;;;;;;;18.97;42.33;100206.00;;;;-49
2020/05/13 04:56:44;;;;;;;1.51;1.41;;;;;;;19.01;42.39;100210.45;;;;-49
2020/05/13 04:59:44;;;;;;;1.45;1.35;;;;;;;19.03;42.35;100216.23;;;;-50
2020/05/13 05:02:44;;;;;;;1.79;1.31;;;;;;;19.07;42.34;100220.31;;;;-49
2020/05/13 05:05:44;;;;;;;1.65;1.55;;;;;;;19.10;42.33;100217.66;;;;-49
2020/05/13 05:08:44;;;;;;;1.40;1.30;;;;;;;19.13;42.40;100207.08;;;;-49
2020/05/13 05:11:44;;;;;;;1.78;1.39;;;;;;;19.16;42.38;100211.19;;;;-48
2020/05/13 05:14:44;;;;;;;1.59;1.42;;;;;;;19.19;42.34;100209.13;;;;-49
2020/05/13 05:17:44;;;;;;;1.59;1.47;;;;;;;19.21;42.29;100211.62;;;;-48
2020/05/13 05:20:44;;;;;;;2.51;1.40;;;;;;;19.24;42.35;100212.69;;;;-49
2020/05/13 05:23:44;;;;;;;1.52;1.42;;;;;;;19.27;42.33;100216.91;;;;-48
2020/05/13 05:26:44;;;;;;;1.56;1.31;;;;;;;19.29;42.29;100217.89;;;;-49
2020/05/13 05:29:44;;;;;;;1.60;1.50;;;;;;;19.32;42.26;100221.86;;;;-50
2020/05/13 05:35:44;;;;;;;1.60;1.50;;;;;;;19.36;42.22;100221.39;;;;-48
2020/05/13 05:38:44;;;;;;;1.60;1.50;;;;;;;19.39;42.17;100220.14;;;;-48
2020/05/13 05:41:44;;;;;;;1.50;1.40;;;;;;;19.40;42.23;100214.39;;;;-49
2020/05/13 05:44:44;;;;;;;1.85;1.52;;;;;;;19.42;42.15;100214.17;;;;-48
2020/05/13 05:47:44;;;;;;;1.63;1.50;;;;;;;19.43;42.15;100208.68;;;;-48
2020/05/13 05:50:44;;;;;;;1.50;1.40;;;;;;;19.45;42.14;100213.69;;;;-49
2020/05/13 05:53:44;;;;;;;1.57;1.47;;;;;;;19.46;42.11;100210.14;;;;-48
2020/05/13 05:56:44;;;;;;;1.50;1.40;;;;;;;19.48;42.12;100210.02;;;;-48
2020/05/13 05:59:44;;;;;;;1.60;1.50;;;;;;;19.48;42.10;100207.78;;;;-49
2020/05/13 06:02:44;;;;;;;1.54;1.44;;;;;;;19.50;42.05;100215.73;;;;-50
2020/05/13 06:05:44;;;;;;;2.58;1.40;;;;;;;19.52;42.06;100217.39;;;;-49
2020/05/13 06:08:44;;;;;;;1.50;1.40;;;;;;;19.52;42.01;100213.80;;;;-48
2020/05/13 06:11:44;;;;;;;1.51;1.41;;;;;;;19.54;42.00;100216.97;;;;-54
2020/05/13 06:14:44;;;;;;;1.67;1.56;;;;;;;19.55;41.97;100217.10;;;;-54
2020/05/13 06:17:44;;;;;;;1.55;1.45;;;;;;;19.56;42.01;100217.55;;;;-54
2020/05/13 06:20:44;;;;;;;1.52;1.42;;;;;;;19.58;41.96;100212.77;;;;-54
2020/05/13 06:23:44;;;;;;;1.41;1.31;;;;;;;19.57;41.91;100210.48;;;;-54
2020/05/13 06:26:44;;;;;;;1.51;1.41;;;;;;;19.60;41.91;100213.35;;;;-54
2020/05/13 06:29:44;;;;;;;1.50;1.40;;;;;;;19.61;41.90;100211.55;;;;-54
2020/05/13 06:32:44;;;;;;;1.54;1.40;;;;;;;19.63;41.91;100212.30;;;;-53
2020/05/13 06:35:44;;;;;;;1.51;1.41;;;;;;;19.63;41.85;100212.06;;;;-54
2020/05/13 06:38:44;;;;;;;1.66;1.40;;;;;;;19.64;41.84;100198.27;;;;-54
2020/05/13 06:41:44;;;;;;;1.50;1.39;;;;;;;19.65;41.82;100195.73;;;;-54
2020/05/13 06:44:44;;;;;;;1.55;1.41;;;;;;;19.67;41.79;100189.51;;;;-54
2020/05/13 06:47:44;;;;;;;1.66;1.56;;;;;;;19.68;41.77;100184.96;;;;-51
2020/05/13 06:57:46;;;;;;;1.57;1.40;;;;;;;19.72;41.73;100177.81;;;;-54
2020/05/13 07:01:06;;;;;;;1.74;1.43;;;;;;;19.73;41.71;100170.27;;;;-54
2020/05/13 07:04:09;;;;;;;1.56;1.46;;;;;;;19.74;41.69;100168.56;;;;-54
2020/05/13 07:09:57;;;;;;;1.43;1.33;;;;;;;19.75;41.70;100153.13;;;;-54
2020/05/13 07:13:34;;;;;;;1.50;1.40;;;;;;;19.76;41.67;100149.72;;;;-54
2020/05/13 07:17:02;;;;;;;1.40;1.30;;;;;;;19.77;41.63;100145.23;;;;-55
2020/05/13 07:19:59;;;;;;;1.52;1.40;;;;;;;19.78;41.63;100140.91;;;;-54
2020/05/13 07:22:44;;;;;;;1.40;1.30;;;;;;;19.79;41.59;100140.11;;;;-54
2020/05/13 07:25:44;;;;;;;1.41;1.31;;;;;;;19.79;41.55;100134.25;;;;-54
2020/05/13 07:28:48;;;;;;;1.66;1.31;;;;;;;19.80;41.56;100127.08;;;;-53
2020/05/13 07:31:44;;;;;;;1.47;1.37;;;;;;;19.80;41.54;100126.91;;;;-54
2020/05/13 07:34:44;;;;;;;1.42;1.32;;;;;;;19.82;41.57;100135.53;;;;-54
2020/05/13 07:37:44;;;;;;;1.43;1.33;;;;;;;19.83;41.49;100135.06;;;;-50
2020/05/13 07:40:44;;;;;;;5.05;1.49;;;;;;;19.84;41.64;100130.41;;;;-53
2020/05/13 07:43:44;;;;;;;2.30;1.65;;;;;;;19.85;41.27;100123.58;;;;-51
2020/05/13 07:46:44;;;;;;;1.60;1.50;;;;;;;19.86;40.95;100119.77;;;;-51
2020/05/13 07:49:44;;;;;;;2.07;1.56;;;;;;;19.87;41.06;100116.52;;;;-52
2020/05/13 07:52:44;;;;;;;1.71;1.60;;;;;;;19.89;40.88;100115.19;;;;-53
2020/05/13 07:55:44;;;;;;;2.39;1.66;;;;;;;19.91;41.25;100112.81;;;;-53
2020/05/13 07:58:44;;;;;;;1.98;1.80;;;;;;;19.92;40.31;100108.33;;;;-55
2020/05/13 08:01:44;;;;;;;2.00;1.57;;;;;;;19.93;40.15;100107.25;;;;-55
2020/05/13 08:04:44;;;;;;;1.89;1.66;;;;;;;19.95;41.13;100115.98;;;;-52
2020/05/13 08:07:44;;;;;;;1.70;1.60;;;;;;;19.97;40.18;100118.80;;;;-53
2020/05/13 08:10:44;;;;;;;2.03;1.69;;;;;;;19.99;40.66;100120.92;;;;-56
2020/05/13 08:13:44;;;;;;;2.77;1.99;;;;;;;19.97;39.89;100119.84;;;;-55
2020/05/13 08:16:44;;;;;;;2.97;1.80;;;;;;;19.96;39.70;100118.97;;;;-56
2020/05/13 08:19:44;;;;;;;4.51;2.09;;;;;;;19.95;39.69;100114.73;;;;-54
2020/05/13 08:22:44;;;;;;;3.29;2.05;;;;;;;19.94;39.65;100109.94;;;;-56
2020/05/13 08:25:44;;;;;;;3.16;2.00;;;;;;;19.93;39.55;100095.66;;;;-55
2020/05/13 08:28:44;;;;;;;4.29;1.89;;;;;;;19.94;39.83;100089.46;;;;-55
2020/05/13 08:31:44;;;;;;;4.28;1.75;;;;;;;19.95;40.75;100090.27;;;;-53
2020/05/13 08:34:44;;;;;;;2.37;1.77;;;;;;;19.95;40.97;100072.27;;;;-52
2020/05/13 08:37:53;;;;;;;2.85;1.89;;;;;;;19.96;41.20;100060.70;;;;-52
2020/05/13 08:40:44;;;;;;;2.27;1.77;;;;;;;19.96;41.02;100054.94;;;;-54
2020/05/13 08:43:44;;;;;;;3.10;1.76;;;;;;;19.96;41.09;100047.13;;;;-54
2020/05/13 08:46:44;;;;;;;2.41;1.97;;;;;;;19.98;41.26;100041.40;;;;-53
2020/05/13 08:51:44;;;;;;;3.08;1.74;;;;;;;19.97;40.81;100026.55;;;;-53
2020/05/13 08:54:44;;;;;;;2.14;1.93;;;;;;;19.98;41.10;100020.78;;;;-56
2020/05/13 08:57:44;;;;;;;2.85;1.83;;;;;;;19.97;41.04;100019.91;;;;-54
2020/05/13 09:00:44;;;;;;;3.31;1.70;;;;;;;19.98;41.12;100022.97;;;;-59
2020/05/13 09:03:44;;;;;;;2.11;1.86;;;;;;;19.98;40.83;100019.34;;;;-55
2020/05/13 09:06:44;;;;;;;3.04;1.85;;;;;;;19.98;40.67;100015.92;;;;-58
2020/05/13 09:09:43;;;;;;;2.25;1.79;;;;;;;19.98;40.71;100013.48;;;;-54
2020/05/13 09:12:44;;;;;;;2.97;1.80;;;;;;;19.96;40.63;100004.25;;;;-58
2020/05/13 09:15:44;;;;;;;1.92;1.70;;;;;;;19.97;40.97;100001.81;;;;-49
2020/05/13 09:18:44;;;;;;;3.85;1.80;;;;;;;19.96;41.10;99990.85;;;;-61
2020/05/13 09:21:44;;;;;;;1.73;1.61;;;;;;;19.95;41.08;99986.52;;;;-55
2020/05/13 09:24:44;;;;;;;2.18;1.83;;;;;;;19.96;41.02;99986.86;;;;-58
2020/05/13 09:27:44;;;;;;;2.73;1.87;;;;;;;19.96;41.02;99982.80;;;;-51
2020/05/13 09:30:44;;;;;;;3.49;1.80;;;;;;;19.95;40.75;99985.35;;;;-53
2020/05/13 09:33:44;;;;;;;8.34;2.08;;;;;;;19.90;40.17;99984.10;;;;-51
2020/05/13 09:36:44;;;;;;;4.46;2.85;;;;;;;19.77;38.29;99988.40;;;;-52
2020/05/13 09:39:44;;;;;;;3.48;3.03;;;;;;;19.71;38.67;99990.77;;;;-52
2020/05/13 09:42:43;;;;;;;6.63;3.16;;;;;;;19.65;38.32;99994.09;;;;-49
2020/05/13 09:45:51;;;;;;;5.44;3.05;;;;;;;19.61;37.74;99998.04;;;;-53
2020/05/13 09:48:58;;;;;;;5.29;3.19;;;;;;;19.61;37.93;100004.00;;;;-52
2020/05/13 09:51:53;;;;;;;3.59;3.23;;;;;;;19.56;37.87;100004.92;;;;-52
2020/05/13 09:54:44;;;;;;;3.79;3.24;;;;;;;19.53;37.85;100009.34;;;;-51
2020/05/13 09:57:49;;;;;;;7.39;3.41;;;;;;;19.55;37.66;100004.89;;;;-53
2020/05/13 10:00:51;;;;;;;3.77;2.93;;;;;;;19.59;38.57;100004.77;;;;-52
2020/05/13 10:03:59;;;;;;;4.77;2.64;;;;;;;19.62;38.94;100008.97;;;;-52
2020/05/13 10:06:57;;;;;;;2.79;2.37;;;;;;;19.63;39.19;100003.34;;;;-51
2020/05/13 10:09:48;;;;;;;3.88;2.25;;;;;;;19.65;39.31;100005.99;;;;-56
2020/05/13 10:12:44;;;;;;;3.71;2.19;;;;;;;19.65;39.46;100006.42;;;;-56
2020/05/13 10:15:44;;;;;;;4.22;2.18;;;;;;;19.67;39.57;100004.22;;;;-51
2020/05/13 10:18:44;;;;;;;2.41;2.00;;;;;;;19.68;39.65;100005.90;;;;-52
2020/05/13 10:21:44;;;;;;;2.02;1.81;;;;;;;19.67;39.69;100012.20;;;;-52
2020/05/13 10:24:44;;;;;;;2.03;1.83;;;;;;;19.67;39.74;100009.98;;;;-52
2020/05/13 10:27:44;;;;;;;2.32;1.69;;;;;;;19.66;39.80;100000.84;;;;-52
2020/05/13 10:30:44;;;;;;;2.47;1.73;;;;;;;19.65;39.86;100001.20;;;;-52
2020/05/13 10:37:03;;;;;;;2.61;1.68;;;;;;;19.63;39.93;99991.34;;;;-52
2020/05/13 10:45:03;;;;;;;1.50;1.40;;;;;;;19.60;39.99;99982.70;;;;-52
2020/05/13 10:48:14;;;;;;;1.57;1.47;;;;;;;19.59;39.99;99977.97;;;;-52
2020/05/13 10:56:22;;;;;;;1.70;1.60;;;;;;;19.56;40.09;99969.48;;;;-52
2020/05/13 11:02:03;;;;;;;1.91;1.57;;;;;;;19.54;40.16;99970.08;;;;-52
2020/05/13 11:07:58;;;;;;;2.06;1.49;;;;;;;19.52;40.23;99968.60;;;;-54
2020/05/13 11:11:03;;;;;;;1.71;1.52;;;;;;;19.51;40.19;99965.98;;;;-55
2020/05/13 11:14:14;;;;;;;1.78;1.55;;;;;;;19.50;40.24;99961.43;;;;-52
2020/05/13 11:17:07;;;;;;;1.81;1.54;;;;;;;19.50;40.27;99960.55;;;;-53
2020/05/13 11:19:57;;;;;;;2.08;1.55;;;;;;;19.47;40.25;99952.01;;;;-52
2020/05/13 11:23:14;;;;;;;1.78;1.63;;;;;;;19.48;40.29;99952.20;;;;-52
2020/05/13 11:26:16;;;;;;;1.69;1.53;;;;;;;19.46;40.33;99944.33;;;;-56
2020/05/13 11:29:15;;;;;;;1.77;1.39;;;;;;;19.45;40.31;99941.22;;;;-52
2020/05/13 11:35:57;;;;;;;1.49;1.39;;;;;;;19.42;40.35;99944.73;;;;-53
2020/05/13 11:42:04;;;;;;;1.56;1.46;;;;;;;19.40;40.39;99945.92;;;;-52
2020/05/13 11:49:09;;;;;;;1.50;1.40;;;;;;;19.38;40.44;99945.85;;;;-53
2020/05/13 11:51:46;;;;;;;1.67;1.54;;;;;;;19.37;40.43;99943.77;;;;-52
2020/05/13 11:54:44;;;;;;;1.67;1.31;;;;;;;19.36;40.45;99939.66;;;;-54
2020/05/13 11:57:44;;;;;;;1.93;1.50;;;;;;;19.34;40.45;99926.95;;;;-57
2020/05/13 12:00:44;;;;;;;2.95;1.41;;;;;;;19.35;40.55;99922.13;;;;-53
2020/05/13 12:03:44;;;;;;;1.50;1.40;;;;;;;19.36;40.60;99914.44;;;;-56
2020/05/13 12:06:44;;;;;;;1.72;1.59;;;;;;;19.38;40.68;99907.64;;;;-55
2020/05/13 12:09:44;;;;;;;1.63;1.51;;;;;;;19.39;40.70;99904.06;;;;-54
2020/05/13 12:12:45;;;;;;;1.50;1.40;;;;;;;19.40;40.72;99901.42;;;;-53
2020/05/13 12:15:43;;;;;;;1.71;1.47;;;;;;;19.40;40.83;99896.49;;;;-54
2020/05/13 12:18:43;;;;;;;1.52;1.42;;;;;;;19.41;40.80;99892.91;;;;-53
2020/05/13 12:21:43;;;;;;;1.74;1.61;;;;;;;19.41;40.83;99894.05;;;;-57
2020/05/13 12:24:44;;;;;;;1.53;1.43;;;;;;;19.42;40.76;99890.06;;;;-56
2020/05/13 12:27:44;;;;;;;1.39;1.29;;;;;;;19.42;40.84;99886.45;;;;-59
2020/05/13 12:30:44;;;;;;;2.45;1.41;;;;;;;19.41;40.84;99886.38;;;;-58
2020/05/13 12:33:44;;;;;;;1.51;1.41;;;;;;;19.41;40.83;99887.42;;;;-58
2020/05/13 12:36:44;;;;;;;1.45;1.35;;;;;;;19.41;40.88;99890.27;;;;-59
2020/05/13 12:39:43;;;;;;;2.82;1.35;;;;;;;19.42;40.90;99888.53;;;;-57
2020/05/13 12:42:43;;;;;;;1.69;1.59;;;;;;;19.41;41.01;99884.14;;;;-53
2020/05/13 12:45:43;;;;;;;1.41;1.31;;;;;;;19.42;41.13;99888.36;;;;-51
2020/05/13 12:48:43;;;;;;;1.81;1.57;;;;;;;19.43;41.18;99894.13;;;;-55
2020/05/13 12:51:44;;;;;;;1.79;1.51;;;;;;;19.43;41.16;99887.96;;;;-54
2020/05/13 12:54:44;;;;;;;1.39;1.29;;;;;;;19.43;41.16;99884.41;;;;-55
2020/05/13 12:57:44;;;;;;;2.05;1.37;;;;;;;19.43;41.15;99881.56;;;;-51
2020/05/13 13:00:44;;;;;;;1.83;1.44;;;;;;;19.44;41.17;99874.27;;;;-57
2020/05/13 13:03:44;;;;;;;1.51;1.41;;;;;;;19.44;41.14;99865.16;;;;-55
2020/05/13 13:06:44;;;;;;;1.66;1.47;;;;;;;19.44;41.19;99857.28;;;;-57
2020/05/13 13:09:44;;;;;;;3.01;1.43;;;;;;;19.44;41.10;99852.09;;;;-56
2020/05/13 13:12:43;;;;;;;2.19;1.35;;;;;;;19.44;41.09;99840.61;;;;-57
2020/05/13 13:15:43;;;;;;;1.57;1.29;;;;;;;19.43;41.20;99839.37;;;;-58
2020/05/13 13:18:43;;;;;;;1.43;1.33;;;;;;;19.44;41.15;99836.52;;;;-55
2020/05/13 13:21:43;;;;;;;1.49;1.39;;;;;;;19.44;41.25;99833.44;;;;-55
2020/05/13 13:24:43;;;;;;;2.41;1.48;;;;;;;19.43;41.16;99827.48;;;;-55
2020/05/13 13:27:43;;;;;;;2.44;1.51;;;;;;;19.40;41.17;99819.67;;;;-57
2020/05/13 13:30:44;;;;;;;1.49;1.39;;;;;;;19.40;41.14;99813.67;;;;-55
2020/05/13 13:33:44;;;;;;;1.51;1.40;;;;;;;19.38;41.08;99812.57;;;;-55
2020/05/13 13:36:44;;;;;;;1.54;1.40;;;;;;;19.37;41.08;99811.36;;;;-55
2020/05/13 13:39:44;;;;;;;1.39;1.29;;;;;;;19.36;41.01;99807.72;;;;-55
2020/05/13 13:42:44;;;;;;;1.40;1.30;;;;;;;19.36;41.07;99823.41;;;;-55
2020/05/13 13:45:43;;;;;;;1.51;1.41;;;;;;;19.34;41.07;99825.83;;;;-55
2020/05/13 13:48:43;;;;;;;2.01;1.45;;;;;;;19.32;41.03;99823.91;;;;-55
2020/05/13 13:51:43;;;;;;;1.53;1.30;;;;;;;19.32;41.09;99814.34;;;;-56
2020/05/13 13:54:43;;;;;;;1.69;1.40;;;;;;;19.31;41.03;99802.19;;;;-55
2020/05/13 13:57:44;;;;;;;2.77;1.40;;;;;;;19.30;41.00;99797.13;;;;-58
2020/05/13 14:04:22;;;;;;;1.50;1.40;;;;;;;19.32;41.05;99793.52;;;;-59
2020/05/13 14:06:44;;;;;;;1.52;1.30;;;;;;;19.29;41.09;99799.37;;;;-61
2020/05/13 14:09:44;;;;;;;1.61;1.30;;;;;;;19.29;41.05;99801.84;;;;-58
2020/05/13 14:12:44;;;;;;;1.39;1.25;;;;;;;19.28;41.01;99793.88;;;;-61
2020/05/13 14:15:43;;;;;;;1.67;1.40;;;;;;;19.27;41.03;99788.41;;;;-60
2020/05/13 14:18:43;;;;;;;2.27;1.34;;;;;;;19.26;41.03;99768.02;;;;-53
2020/05/13 14:21:43;;;;;;;1.55;1.45;;;;;;;19.25;41.01;99764.64;;;;-53
2020/05/13 14:24:43;;;;;;;2.63;1.30;;;;;;;19.24;41.03;99773.48;;;;-52
2020/05/13 14:27:43;;;;;;;1.68;1.39;;;;;;;19.23;41.00;99766.69;;;;-51
2020/05/13 14:30:43;;;;;;;1.40;1.30;;;;;;;19.23;41.02;99773.78;;;;-51
2020/05/13 14:33:44;;;;;;;1.51;1.30;;;;;;;19.22;41.03;99765.31;;;;-52
2020/05/13 14:36:44;;;;;;;1.51;1.40;;;;;;;19.21;41.03;99744.92;;;;-51
2020/05/13 14:39:44;;;;;;;3.63;1.40;;;;;;;19.19;41.00;99732.91;;;;-53
2020/05/13 14:42:44;;;;;;;2.08;1.40;;;;;;;19.20;41.00;99740.70;;;;-51
2020/05/13 14:45:44;;;;;;;4.25;1.39;;;;;;;19.21;40.97;99747.43;;;;-51
2020/05/13 14:48:43;;;;;;;1.58;1.40;;;;;;;19.20;40.93;99762.63;;;;-52
2020/05/13 14:51:43;;;;;;;1.58;1.38;;;;;;;19.20;41.01;99772.84;;;;-51
2020/05/13 14:54:43;;;;;;;1.96;1.29;;;;;;;19.18;40.98;99778.80;;;;-53
2020/05/13 14:57:43;;;;;;;1.39;1.27;;;;;;;19.16;41.02;99776.48;;;;-53
2020/05/13 15:00:43;;;;;;;1.75;1.37;;;;;;;19.16;41.04;99772.80;;;;-51
2020/05/13 15:03:44;;;;;;;1.52;1.38;;;;;;;19.16;41.05;99773.10;;;;-53
2020/05/13 15:06:44;;;;;;;1.58;1.48;;;;;;;19.16;41.04;99765.91;;;;-51
2020/05/13 15:09:44;;;;;;;1.40;1.30;;;;;;;19.14;41.06;99760.41;;;;-51
2020/05/13 15:12:44;;;;;;;2.13;1.31;;;;;;;19.13;41.04;99770.13;;;;-54
2020/05/13 15:15:44;;;;;;;2.19;1.30;;;;;;;19.13;41.05;99783.67;;;;-52
2020/05/13 15:18:44;;;;;;;1.39;1.29;;;;;;;19.12;41.05;99788.36;;;;-52
2020/05/13 15:21:43;;;;;;;1.36;1.26;;;;;;;19.11;41.06;99788.50;;;;-53
2020/05/13 15:24:43;;;;;;;2.96;1.31;;;;;;;19.11;41.07;99797.70;;;;-53
2020/05/13 15:27:43;;;;;;;1.40;1.30;;;;;;;19.11;41.08;99800.27;;;;-53
2020/05/13 15:30:43;;;;;;;1.59;1.30;;;;;;;19.10;41.09;99804.46;;;;-58
2020/05/13 15:33:43;;;;;;;1.98;1.36;;;;;;;19.08;41.13;99803.12;;;;-52
2020/05/13 15:36:43;;;;;;;3.57;1.41;;;;;;;19.08;41.20;99798.70;;;;-51
2020/05/13 15:39:44;;;;;;;3.94;1.36;;;;;;;19.13;41.29;99804.03;;;;-51
2020/05/13 15:42:44;;;;;;;2.37;1.33;;;;;;;19.13;41.37;99806.11;;;;-53
2020/05/13 15:45:44;;;;;;;2.99;1.35;;;;;;;19.15;41.52;99803.16;;;;-51
2020/05/13 15:48:44;;;;;;;1.62;1.35;;;;;;;19.15;41.46;99799.55;;;;-51
2020/05/13 15:51:44;;;;;;;3.73;1.51;;;;;;;19.16;41.53;99797.98;;;;-51
2020/05/13 15:54:43;;;;;;;2.40;1.32;;;;;;;19.17;41.45;99806.14;;;;-58
2020/05/13 15:57:43;;;;;;;3.06;1.30;;;;;;;19.17;41.44;99806.41;;;;-59
2020/05/13 16:00:43;;;;;;;3.19;1.29;;;;;;;19.17;41.47;99806.91;;;;-60
2020/05/13 16:03:43;;;;;;;2.57;1.30;;;;;;;19.18;41.43;99811.09;;;;-58
2020/05/13 16:06:43;;;;;;;2.02;1.40;;;;;;;19.19;41.44;99806.45;;;;-58
2020/05/13 16:09:43;;;;;;;2.01;1.40;;;;;;;19.19;41.45;99801.77;;;;-61
2020/05/13 16:12:44;;;;;;;2.60;1.31;;;;;;;19.18;41.60;99795.41;;;;-53
2020/05/13 16:15:44;;;;;;;1.61;1.36;;;;;;;19.20;41.62;99803.41;;;;-55
2020/05/13 16:18:44;;;;;;;1.35;1.25;;;;;;;19.20;41.61;99800.23;;;;-55
2020/05/13 16:21:44;;;;;;;1.40;1.30;;;;;;;19.21;41.67;99803.34;;;;-51
2020/05/13 16:24:44;;;;;;;2.39;1.41;;;;;;;19.20;41.63;99800.96;;;;-51
2020/05/13 16:27:43;;;;;;;2.21;1.50;;;;;;;19.22;41.66;99790.48;;;;-53
2020/05/13 16:35:44;;;;;;;1.71;1.30;;;;;;;19.22;41.80;99800.63;;;;-60
2020/05/13 16:38:43;;;;;;;1.85;1.30;;;;;;;19.23;41.73;99806.02;;;;-59
2020/05/13 16:41:43;;;;;;;2.13;1.39;;;;;;;19.24;41.72;99806.62;;;;-61
2020/05/13 16:44:43;;;;;;;2.43;1.30;;;;;;;19.24;41.75;99806.05;;;;-57
2020/05/13 16:47:43;;;;;;;2.70;1.29;;;;;;;19.25;41.79;99808.44;;;;-60
2020/05/13 16:50:44;;;;;;;1.51;1.41;;;;;;;19.25;41.81;99802.58;;;;-64
2020/05/13 16:53:44;;;;;;;1.31;1.21;;;;;;;19.25;41.77;99793.54;;;;-58
2020/05/13 16:56:44;;;;;;;2.59;1.30;;;;;;;19.24;41.81;99794.91;;;;-57
2020/05/13 16:59:43;;;;;;;2.09;1.45;;;;;;;19.24;41.79;99792.90;;;;-57
2020/05/13 17:02:43;;;;;;;1.55;1.30;;;;;;;19.23;41.73;99789.12;;;;-58
2020/05/13 17:05:43;;;;;;;1.37;1.20;;;;;;;19.22;41.70;99777.94;;;;-58
2020/05/13 17:08:43;;;;;;;1.63;1.40;;;;;;;19.21;41.68;99778.56;;;;-58
2020/05/13 17:11:44;;;;;;;1.54;1.22;;;;;;;19.21;41.71;99780.74;;;;-57
2020/05/13 17:14:43;;;;;;;1.34;1.25;;;;;;;19.19;41.65;99774.92;;;;-56
2020/05/13 17:17:43;;;;;;;1.83;1.49;;;;;;;19.19;41.61;99772.97;;;;-57
2020/05/13 17:20:43;;;;;;;1.75;1.37;;;;;;;19.17;41.64;99775.84;;;;-56
2020/05/13 17:23:44;;;;;;;1.59;1.38;;;;;;;19.16;41.63;99772.20;;;;-56
2020/05/13 17:26:44;;;;;;;1.61;1.34;;;;;;;19.16;41.58;99766.38;;;;-56
2020/05/13 17:29:44;;;;;;;1.34;1.24;;;;;;;19.16;41.59;99776.38;;;;-57
2020/05/13 17:32:44;;;;;;;1.69;1.45;;;;;;;19.15;41.59;99790.64;;;;-56
2020/05/13 17:35:43;;;;;;;1.75;1.49;;;;;;;19.14;41.58;99791.25;;;;-56
2020/05/13 17:38:43;;;;;;;1.53;1.43;;;;;;;19.14;41.57;99796.63;;;;-56
2020/05/13 17:41:43;;;;;;;1.59;1.49;;;;;;;19.12;41.56;99798.57;;;;-57
2020/05/13 17:44:43;;;;;;;2.48;1.40;;;;;;;19.11;41.56;99787.42;;;;-56
2020/05/13 17:47:43;;;;;;;1.55;1.45;;;;;;;19.10;41.62;99785.78;;;;-56
2020/05/13 17:50:43;;;;;;;2.20;1.50;;;;;;;19.11;41.65;99788.66;;;;-56
2020/05/13 17:53:43;;;;;;;5.87;1.77;;;;;;;19.12;41.70;99783.17;;;;-55
2020/05/13 17:56:43;;;;;;;1.85;1.67;;;;;;;19.11;41.68;99787.22;;;;-55
2020/05/13 17:59:43;;;;;;;1.79;1.60;;;;;;;19.10;41.68;99797.16;;;;-56
2020/05/13 18:02:43;;;;;;;3.68;1.62;;;;;;;19.09;41.70;99801.21;;;;-55
2020/05/13 18:06:09;;;;;;;4.09;1.70;;;;;;;19.07;41.70;99806.36;;;;-55
2020/05/13 18:08:56;;;;;;;3.21;1.67;;;;;;;19.08;41.63;99805.29;;;;-55
2020/05/13 18:11:53;;;;;;;3.15;1.77;;;;;;;19.06;41.67;99803.48;;;;-55
2020/05/13 18:14:51;;;;;;;1.89;1.56;;;;;;;19.05;41.61;99795.08;;;;-54